createdAt,value
2019-03-03T00:01:01.419Z,588.4
2019-03-03T00:02:03.575Z,588.5
2019-03-03T00:03:06.024Z,588
2019-03-03T00:04:08.446Z,587.8
2019-03-03T00:05:10.601Z,587.9
2019-03-03T00:06:13.025Z,587.8
2019-03-03T00:07:15.480Z,587.8
2019-03-03T00:08:17.609Z,587.1
2019-03-03T00:09:20.029Z,587.4
2019-03-03T00:10:22.457Z,587.7
2019-03-03T00:11:24.619Z,587.5
2019-03-03T00:12:27.050Z,587.8
2019-03-03T00:13:29.480Z,587.9
2019-03-03T00:14:31.652Z,587.6
2019-03-03T00:15:33.257Z,588.2
2019-03-03T00:16:35.677Z,588
2019-03-03T00:17:38.122Z,588.1
2019-03-03T00:18:39.995Z,588.3
2019-03-03T00:19:42.161Z,587.9
2019-03-03T00:20:44.590Z,587.7
2019-03-03T00:21:47.026Z,587.9
2019-03-03T00:22:49.156Z,587.8
2019-03-03T00:23:51.596Z,587.7
2019-03-03T00:24:54.032Z,587.8
2019-03-03T00:25:56.458Z,587.8
2019-03-03T00:26:58.612Z,587.8
2019-03-03T00:28:00.768Z,587.6
2019-03-03T00:29:03.209Z,587.7
2019-03-03T00:30:05.633Z,587.7
2019-03-03T00:31:08.095Z,588.1
2019-03-03T00:32:09.993Z,587.3
2019-03-03T00:33:11.882Z,587.5
2019-03-03T00:34:14.054Z,587.7
2019-03-03T00:35:16.227Z,588.4
2019-03-03T00:36:18.651Z,587.6
2019-03-03T00:37:21.074Z,588.5
2019-03-03T00:38:23.549Z,588.5
2019-03-03T00:39:25.703Z,588.4
2019-03-03T00:40:27.852Z,588.9
2019-03-03T00:41:30.291Z,588.9
2019-03-03T00:42:32.721Z,589.4
2019-03-03T00:43:35.133Z,589
2019-03-03T00:44:37.565Z,589.2
2019-03-03T00:45:39.454Z,589.4
2019-03-03T00:46:41.615Z,589.3
2019-03-03T00:47:44.053Z,589.4
2019-03-03T00:48:46.203Z,589.6
2019-03-03T00:49:48.385Z,589.8
2019-03-03T00:50:50.538Z,589.7
2019-03-03T00:51:52.699Z,589.8
2019-03-03T00:52:54.856Z,589.7
2019-03-03T00:53:57.276Z,589.5
2019-03-03T00:54:59.406Z,589.9
2019-03-03T00:56:01.295Z,589.7
2019-03-03T00:57:03.728Z,589.7
2019-03-03T00:58:06.161Z,589.5
2019-03-03T00:59:08.591Z,589.6
2019-03-03T01:00:11.018Z,589.6
2019-03-03T01:01:13.449Z,589.5
2019-03-03T01:02:15.871Z,589.4
2019-03-03T01:03:18.024Z,589.7
2019-03-03T01:04:20.187Z,589.7
2019-03-03T01:05:22.633Z,590
2019-03-03T01:06:24.806Z,590.1
2019-03-03T01:07:27.237Z,589.9
2019-03-03T01:08:29.683Z,590
2019-03-03T01:09:32.121Z,589.9
2019-03-03T01:10:34.274Z,589.6
2019-03-03T01:11:36.714Z,589.7
2019-03-03T01:12:38.586Z,589.8
2019-03-03T01:13:41.016Z,589.9
2019-03-03T01:14:43.441Z,589.5
2019-03-03T01:15:45.299Z,589.8
2019-03-03T01:16:47.729Z,589.7
2019-03-03T01:17:49.870Z,590.1
2019-03-03T01:18:52.329Z,590.1
2019-03-03T01:19:54.749Z,590.1
2019-03-03T01:20:56.906Z,590
2019-03-03T01:21:59.317Z,590.1
2019-03-03T01:23:03.695Z,589.6
2019-03-03T01:24:06.118Z,589.9
2019-03-03T01:25:08.008Z,590.1
2019-03-03T01:26:10.451Z,590
2019-03-03T01:27:27.532Z,590.1
2019-03-03T01:28:29.967Z,590.7
2019-03-03T01:29:32.125Z,590.6
2019-03-03T01:30:34.004Z,590.9
2019-03-03T01:31:36.171Z,590.4
2019-03-03T01:32:38.613Z,591.3
2019-03-03T01:33:40.774Z,590.5
2019-03-03T01:34:42.920Z,591.5
2019-03-03T01:35:45.357Z,591.2
2019-03-03T01:36:47.783Z,591.2
2019-03-03T01:37:49.949Z,591
2019-03-03T01:38:52.399Z,591.1
2019-03-03T01:39:54.564Z,591.1
2019-03-03T01:40:57.017Z,591.4
2019-03-03T01:41:59.441Z,591.1
2019-03-03T01:43:01.863Z,590.8
2019-03-03T01:44:04.279Z,591
2019-03-03T01:45:06.707Z,590.8
2019-03-03T01:46:09.131Z,590.6
2019-03-03T01:47:11.279Z,590.9
2019-03-03T01:48:13.434Z,591
2019-03-03T01:49:15.578Z,591.4
2019-03-03T01:50:18.026Z,590.6
2019-03-03T01:51:20.456Z,590.8
2019-03-03T01:52:22.882Z,590.9
2019-03-03T01:53:25.300Z,590.3
2019-03-03T01:54:27.189Z,590.1
2019-03-03T01:55:29.053Z,590.1
2019-03-03T01:56:31.479Z,590.4
2019-03-03T01:57:33.914Z,590.4
2019-03-03T01:58:36.339Z,590.6
2019-03-03T01:59:38.494Z,589.8
2019-03-03T02:00:40.919Z,590
2019-03-03T02:01:43.078Z,590.5
2019-03-03T02:02:45.545Z,589.9
2019-03-03T02:03:47.431Z,590.3
2019-03-03T02:04:49.876Z,590.4
2019-03-03T02:05:52.312Z,590
2019-03-03T02:06:54.736Z,589.7
2019-03-03T02:07:56.873Z,590.4
2019-03-03T02:08:59.302Z,590.5
2019-03-03T02:10:01.731Z,590.8
2019-03-03T02:11:03.889Z,591.2
2019-03-03T02:12:06.058Z,590.9
2019-03-03T02:13:08.497Z,590.8
2019-03-03T02:14:10.646Z,591
2019-03-03T02:15:13.081Z,591.2
2019-03-03T02:16:15.509Z,591.1
2019-03-03T02:17:17.369Z,591.4
2019-03-03T02:18:19.803Z,591.1
2019-03-03T02:19:22.236Z,591
2019-03-03T02:20:24.671Z,590.7
2019-03-03T02:21:27.113Z,590.7
2019-03-03T02:22:28.971Z,591.1
2019-03-03T02:23:31.410Z,590.9
2019-03-03T02:24:33.297Z,590.9
2019-03-03T02:25:35.725Z,591.1
2019-03-03T02:26:37.873Z,591.4
2019-03-03T02:27:40.298Z,591
2019-03-03T02:28:42.723Z,591.1
2019-03-03T02:29:45.146Z,591.4
2019-03-03T02:30:47.579Z,591.6
2019-03-03T02:31:49.462Z,591.2
2019-03-03T02:32:51.894Z,591.7
2019-03-03T02:33:54.338Z,591.7
2019-03-03T02:34:56.776Z,591.7
2019-03-03T02:35:59.213Z,591.8
2019-03-03T02:37:01.675Z,591.9
2019-03-03T02:38:04.109Z,591.8
2019-03-03T02:39:06.543Z,592
2019-03-03T02:40:08.710Z,591.7
2019-03-03T02:41:10.600Z,592
2019-03-03T02:42:12.759Z,592
2019-03-03T02:43:15.189Z,592.2
2019-03-03T02:44:17.636Z,592.2
2019-03-03T02:45:20.072Z,592.6
2019-03-03T02:46:22.289Z,592.5
2019-03-03T02:47:24.728Z,592.3
2019-03-03T02:48:26.885Z,592.5
2019-03-03T02:49:29.069Z,592.3
2019-03-03T02:50:31.493Z,592.3
2019-03-03T02:51:33.928Z,592.4
2019-03-03T02:52:35.811Z,592.8
2019-03-03T02:53:38.260Z,592.3
2019-03-03T02:54:40.689Z,592.5
2019-03-03T02:55:43.121Z,592.7
2019-03-03T02:56:45.272Z,592.4
2019-03-03T02:57:47.712Z,592.5
2019-03-03T02:58:49.311Z,592.5
2019-03-03T02:59:51.734Z,592.5
2019-03-03T03:00:54.155Z,592.7
2019-03-03T03:01:56.599Z,592.7
2019-03-03T03:02:59.029Z,592.8
2019-03-03T03:04:01.493Z,593.2
2019-03-03T03:05:03.643Z,592.9
2019-03-03T03:06:05.805Z,592.8
2019-03-03T03:07:07.697Z,592.8
2019-03-03T03:08:09.854Z,592.9
2019-03-03T03:09:12.282Z,593
2019-03-03T03:10:14.409Z,593.1
2019-03-03T03:11:16.830Z,592.8
2019-03-03T03:12:18.996Z,593.1
2019-03-03T03:13:21.430Z,592.8
2019-03-03T03:14:23.583Z,593.1
2019-03-03T03:15:25.721Z,593
2019-03-03T03:16:28.145Z,592.8
2019-03-03T03:17:30.571Z,593.1
2019-03-03T03:18:32.997Z,592.6
2019-03-03T03:19:35.424Z,593.3
2019-03-03T03:20:37.589Z,593.1
2019-03-03T03:21:40.010Z,593.7
2019-03-03T03:22:42.166Z,593.8
2019-03-03T03:23:44.585Z,593.3
2019-03-03T03:24:46.737Z,593.9
2019-03-03T03:25:48.907Z,593.3
2019-03-03T03:26:51.335Z,593.5
2019-03-03T03:27:53.490Z,593.7
2019-03-03T03:28:55.623Z,593.8
2019-03-03T03:29:57.485Z,593.5
2019-03-03T03:30:59.925Z,593.6
2019-03-03T03:32:02.482Z,593.7
2019-03-03T03:33:04.714Z,594
2019-03-03T03:34:07.135Z,593.8
2019-03-03T03:35:09.286Z,593.4
2019-03-03T03:36:11.697Z,594
2019-03-03T03:37:14.132Z,594
2019-03-03T03:38:16.559Z,594.3
2019-03-03T03:39:18.998Z,593.7
2019-03-03T03:40:21.424Z,593.7
2019-03-03T03:41:23.852Z,593.9
2019-03-03T03:42:26.274Z,593.6
2019-03-03T03:43:28.710Z,593.1
2019-03-03T03:44:31.123Z,593.3
2019-03-03T03:45:33.552Z,593.4
2019-03-03T03:46:35.701Z,593.3
2019-03-03T03:47:38.156Z,593.1
2019-03-03T03:48:40.582Z,592.9
2019-03-03T03:49:43.001Z,593.1
2019-03-03T03:50:44.881Z,593.2
2019-03-03T03:51:47.038Z,593.1
2019-03-03T03:52:49.474Z,593.3
2019-03-03T03:53:51.900Z,593.2
2019-03-03T03:54:54.402Z,593
2019-03-03T03:55:56.606Z,593.5
2019-03-03T03:56:59.099Z,593.1
2019-03-03T03:58:01.532Z,593.6
2019-03-03T03:59:03.957Z,593.3
2019-03-03T04:00:06.398Z,593
2019-03-03T04:01:08.300Z,592.7
2019-03-03T04:02:10.440Z,592.7
2019-03-03T04:03:12.926Z,592.4
2019-03-03T04:04:15.353Z,592.6
2019-03-03T04:05:17.777Z,592.8
2019-03-03T04:06:19.938Z,592.5
2019-03-03T04:07:22.376Z,592.7
2019-03-03T04:08:24.816Z,592.5
2019-03-03T04:09:26.709Z,592.8
2019-03-03T04:10:29.135Z,592.4
2019-03-03T04:11:31.610Z,592.3
2019-03-03T04:12:34.043Z,592.3
2019-03-03T04:13:36.477Z,592.4
2019-03-03T04:14:38.932Z,592.8
2019-03-03T04:15:41.091Z,592.7
2019-03-03T04:16:43.499Z,593.1
2019-03-03T04:17:45.932Z,592.8
2019-03-03T04:18:48.363Z,592.6
2019-03-03T04:19:50.790Z,592.9
2019-03-03T04:20:52.953Z,592.3
2019-03-03T04:21:55.381Z,592.8
2019-03-03T04:22:57.810Z,592.6
2019-03-03T04:24:00.237Z,592.9
2019-03-03T04:25:02.670Z,592.2
2019-03-03T04:26:04.846Z,592
2019-03-03T04:27:07.281Z,591.8
2019-03-03T04:28:09.426Z,591.7
2019-03-03T04:29:11.301Z,592.5
2019-03-03T04:30:13.733Z,592.3
2019-03-03T04:31:16.162Z,591.8
2019-03-03T04:32:18.327Z,591.6
2019-03-03T04:33:20.242Z,591.8
2019-03-03T04:34:22.670Z,592.3
2019-03-03T04:35:25.095Z,591.8
2019-03-03T04:36:27.243Z,592.6
2019-03-03T04:37:29.379Z,592.5
2019-03-03T04:38:31.815Z,592.4
2019-03-03T04:39:33.957Z,592.1
2019-03-03T04:40:36.377Z,592.3
2019-03-03T04:41:38.549Z,591.8
2019-03-03T04:42:40.159Z,592.3
2019-03-03T04:43:42.315Z,592.7
2019-03-03T04:44:44.745Z,592.3
2019-03-03T04:45:47.208Z,593
2019-03-03T04:46:49.636Z,593.4
2019-03-03T04:47:52.053Z,593
2019-03-03T04:48:53.940Z,593.5
2019-03-03T04:49:56.353Z,593.9
2019-03-03T04:50:58.513Z,593.7
2019-03-03T04:52:00.663Z,594.2
2019-03-03T04:53:02.777Z,594.1
2019-03-03T04:54:04.645Z,593.9
2019-03-03T04:55:07.063Z,593.6
2019-03-03T04:56:09.476Z,593
2019-03-03T04:57:11.893Z,593.3
2019-03-03T04:58:14.054Z,593.9
2019-03-03T04:59:16.202Z,594
2019-03-03T05:00:18.621Z,594
2019-03-03T05:01:20.759Z,594.6
2019-03-03T05:02:22.914Z,594.4
2019-03-03T05:03:25.346Z,594.3
2019-03-03T05:04:27.241Z,594.7
2019-03-03T05:05:29.398Z,595
2019-03-03T05:06:31.550Z,595
2019-03-03T05:07:33.713Z,595.1
2019-03-03T05:08:35.872Z,595.3
2019-03-03T05:09:38.301Z,595.7
2019-03-03T05:10:40.453Z,595.5
2019-03-03T05:11:42.611Z,595.5
2019-03-03T05:12:45.061Z,595
2019-03-03T05:13:47.225Z,595.2
2019-03-03T05:14:49.647Z,595.3
2019-03-03T05:15:52.115Z,595.3
2019-03-03T05:16:53.982Z,595.6
2019-03-03T05:17:56.129Z,595.4
2019-03-03T05:18:58.573Z,595.1
2019-03-03T05:20:01.047Z,595.3
2019-03-03T05:21:03.480Z,595.1
2019-03-03T05:22:05.899Z,595.6
2019-03-03T05:23:08.050Z,595.3
2019-03-03T05:24:10.479Z,595.2
2019-03-03T05:25:12.896Z,595.3
2019-03-03T05:26:15.335Z,595.3
2019-03-03T05:27:17.753Z,596
2019-03-03T05:28:20.177Z,595.9
2019-03-03T05:29:22.331Z,595.6
2019-03-03T05:30:24.767Z,595.4
2019-03-03T05:31:29.261Z,595.4
2019-03-03T05:32:31.489Z,595.3
2019-03-03T05:33:33.939Z,595.5
2019-03-03T05:34:36.371Z,595.9
2019-03-03T05:35:38.526Z,595.6
2019-03-03T05:36:40.957Z,595.7
2019-03-03T05:37:42.565Z,595.7
2019-03-03T05:38:44.413Z,595.5
2019-03-03T05:39:46.321Z,595.5
2019-03-03T05:40:48.761Z,596
2019-03-03T05:41:51.180Z,596
2019-03-03T05:42:53.607Z,596.4
2019-03-03T05:43:56.039Z,596.4
2019-03-03T05:44:58.182Z,596.1
2019-03-03T05:46:00.313Z,596.4
2019-03-03T05:47:01.904Z,596.3
2019-03-03T05:48:04.329Z,597
2019-03-03T05:49:06.474Z,597.3
2019-03-03T05:50:08.608Z,597.1
2019-03-03T05:51:10.743Z,597.6
2019-03-03T05:52:13.180Z,597.2
2019-03-03T05:53:15.050Z,597.2
2019-03-03T05:54:17.477Z,597
2019-03-03T05:55:19.633Z,597.3
2019-03-03T05:56:21.800Z,596.3
2019-03-03T05:57:24.236Z,596.5
2019-03-03T05:58:26.658Z,596.4
2019-03-03T05:59:29.085Z,596.4
2019-03-03T06:00:31.517Z,596.2
2019-03-03T06:01:33.953Z,596.2
2019-03-03T06:02:36.138Z,596.4
2019-03-03T06:03:38.562Z,596.3
2019-03-03T06:04:41.008Z,596
2019-03-03T06:05:42.931Z,595.8
2019-03-03T06:06:45.369Z,596.3
2019-03-03T06:07:47.537Z,596.4
2019-03-03T06:08:49.958Z,597.1
2019-03-03T06:09:52.381Z,596.6
2019-03-03T06:10:54.813Z,596.4
2019-03-03T06:11:57.248Z,596.1
2019-03-03T06:12:59.115Z,596.5
2019-03-03T06:14:01.255Z,596.8
2019-03-03T06:15:03.689Z,597
2019-03-03T06:16:06.109Z,596.7
2019-03-03T06:17:08.529Z,596.5
2019-03-03T06:18:10.952Z,596.8
2019-03-03T06:19:13.087Z,597.2
2019-03-03T06:20:15.514Z,596.6
2019-03-03T06:21:17.378Z,596.8
2019-03-03T06:22:19.796Z,597
2019-03-03T06:23:21.678Z,597.4
2019-03-03T06:24:24.108Z,597.5
2019-03-03T06:25:26.547Z,597.5
2019-03-03T06:26:28.971Z,597.4
2019-03-03T06:27:31.158Z,598
2019-03-03T06:28:33.027Z,597.8
2019-03-03T06:29:35.454Z,597.6
2019-03-03T06:30:37.600Z,597.6
2019-03-03T06:31:40.021Z,597.4
2019-03-03T06:32:41.974Z,597.6
2019-03-03T06:33:44.407Z,597.2
2019-03-03T06:34:46.569Z,597
2019-03-03T06:35:48.983Z,597.1
2019-03-03T06:36:51.406Z,597.1
2019-03-03T06:37:53.840Z,597.4
2019-03-03T06:38:56.263Z,597
2019-03-03T06:39:58.692Z,597.2
2019-03-03T06:41:00.855Z,597
2019-03-03T06:42:03.283Z,596.8
2019-03-03T06:43:05.711Z,597
2019-03-03T06:44:07.876Z,597.1
2019-03-03T06:45:09.760Z,596.9
2019-03-03T06:46:11.930Z,597.2
2019-03-03T06:47:14.090Z,597.1
2019-03-03T06:48:15.962Z,597.2
2019-03-03T06:49:18.116Z,597.1
2019-03-03T06:50:20.554Z,596.9
2019-03-03T06:51:22.713Z,597.3
2019-03-03T06:52:24.587Z,597.1
2019-03-03T06:53:26.741Z,597.2
2019-03-03T06:54:28.893Z,597.3
2019-03-03T06:55:31.441Z,596.7
2019-03-03T06:56:33.621Z,596.9
2019-03-03T06:57:35.504Z,597.1
2019-03-03T06:58:37.951Z,596.9
2019-03-03T06:59:40.377Z,597
2019-03-03T07:00:42.810Z,597.2
2019-03-03T07:01:45.228Z,597.4
2019-03-03T07:02:46.826Z,597.3
2019-03-03T07:03:49.249Z,597.4
2019-03-03T07:04:51.159Z,597.7
2019-03-03T07:05:53.326Z,597.5
2019-03-03T07:06:55.760Z,597.7
2019-03-03T07:07:58.201Z,597.8
2019-03-03T07:09:00.065Z,597.7
2019-03-03T07:10:01.942Z,598.4
2019-03-03T07:11:04.102Z,598.2
2019-03-03T07:12:06.271Z,598.1
2019-03-03T07:13:08.715Z,598.3
2019-03-03T07:14:10.894Z,598.5
2019-03-03T07:15:13.315Z,598
2019-03-03T07:16:15.759Z,598.5
2019-03-03T07:17:18.164Z,598.5
2019-03-03T07:18:20.039Z,598.8
2019-03-03T07:19:22.200Z,598.5
2019-03-03T07:20:24.359Z,598.3
2019-03-03T07:21:26.495Z,598.4
2019-03-03T07:22:28.408Z,598.6
2019-03-03T07:23:30.568Z,598.8
2019-03-03T07:24:33.035Z,598.5
2019-03-03T07:25:35.183Z,598.3
2019-03-03T07:26:37.350Z,598.7
2019-03-03T07:27:39.784Z,598.7
2019-03-03T07:28:41.936Z,599
2019-03-03T07:29:44.066Z,598.8
2019-03-03T07:30:46.510Z,599
2019-03-03T07:31:48.927Z,599
2019-03-03T07:32:51.358Z,598.8
2019-03-03T07:33:53.790Z,599.7
2019-03-03T07:34:55.954Z,599.1
2019-03-03T07:35:58.377Z,600
2019-03-03T07:37:00.517Z,599.7
2019-03-03T07:38:02.954Z,599.6
2019-03-03T07:39:05.371Z,599.5
2019-03-03T07:40:07.556Z,599
2019-03-03T07:41:10.076Z,598.8
2019-03-03T07:42:11.929Z,599.1
2019-03-03T07:43:14.107Z,599.1
2019-03-03T07:44:16.529Z,598.2
2019-03-03T07:45:19.049Z,598.8
2019-03-03T07:46:21.512Z,598.4
2019-03-03T07:47:23.971Z,598.1
2019-03-03T07:48:26.396Z,597.9
2019-03-03T07:49:28.559Z,598.1
2019-03-03T07:50:31.001Z,598.1
2019-03-03T07:51:33.432Z,598.1
2019-03-03T07:52:35.872Z,598.3
2019-03-03T07:53:38.029Z,597.9
2019-03-03T07:54:40.463Z,597.9
2019-03-03T07:55:42.897Z,598
2019-03-03T07:56:45.043Z,598
2019-03-03T07:57:48.896Z,598.4
2019-03-03T07:58:51.054Z,597.8
2019-03-03T07:59:53.228Z,597.6
2019-03-03T08:00:55.380Z,597.7
2019-03-03T08:01:57.792Z,597.4
2019-03-03T08:03:00.235Z,597.5
2019-03-03T08:04:02.676Z,597.5
2019-03-03T08:05:05.111Z,597.5
2019-03-03T08:06:07.264Z,597.6
2019-03-03T08:07:09.436Z,597.3
2019-03-03T08:08:11.868Z,597.5
2019-03-03T08:09:14.330Z,597.5
2019-03-03T08:10:16.758Z,597.9
2019-03-03T08:11:19.188Z,597.3
2019-03-03T08:12:21.623Z,597.6
2019-03-03T08:13:24.046Z,597.7
2019-03-03T08:14:26.473Z,597.9
2019-03-03T08:15:28.902Z,597.3
2019-03-03T08:16:31.337Z,598.3
2019-03-03T08:17:33.494Z,597.9
2019-03-03T08:18:35.629Z,598
2019-03-03T08:19:37.787Z,598.1
2019-03-03T08:20:41.780Z,597.8
2019-03-03T08:21:44.124Z,598.3
2019-03-03T08:22:46.549Z,598
2019-03-03T08:23:48.719Z,598.7
2019-03-03T08:24:52.841Z,598.4
2019-03-03T08:25:54.996Z,598.5
2019-03-03T08:26:57.431Z,598.7
2019-03-03T08:27:59.598Z,599
2019-03-03T08:29:02.030Z,599.1
2019-03-03T08:30:04.192Z,598.9
2019-03-03T08:31:06.648Z,599.6
2019-03-03T08:32:08.796Z,599
2019-03-03T08:33:11.216Z,599.2
2019-03-03T08:34:13.646Z,599.1
2019-03-03T08:35:16.068Z,599
2019-03-03T08:36:18.279Z,599.5
2019-03-03T08:37:20.715Z,599.3
2019-03-03T08:38:22.905Z,599.2
2019-03-03T08:39:25.346Z,599.7
2019-03-03T08:40:27.809Z,599.1
2019-03-03T08:41:30.242Z,599.2
2019-03-03T08:42:32.671Z,599.7
2019-03-03T08:43:35.104Z,599.8
2019-03-03T08:44:37.540Z,599.5
2019-03-03T08:45:39.692Z,600.3
2019-03-03T08:46:42.260Z,600
2019-03-03T08:48:49.902Z,599.6
2019-03-03T08:49:51.789Z,599.3
2019-03-03T08:50:53.941Z,599.7
2019-03-03T08:51:55.841Z,599.3
2019-03-03T08:52:58.273Z,599.4
2019-03-03T08:54:00.427Z,599.6
2019-03-03T08:55:02.608Z,599.5
2019-03-03T08:56:05.042Z,599.7
2019-03-03T08:57:07.212Z,599.6
2019-03-03T08:58:09.639Z,599.4
2019-03-03T08:59:12.071Z,599.8
2019-03-03T09:00:14.217Z,600.6
2019-03-03T09:01:16.646Z,599.1
2019-03-03T09:02:19.090Z,600.4
2019-03-03T09:03:21.518Z,600.1
2019-03-03T09:04:23.986Z,599.8
2019-03-03T09:05:26.434Z,600.5
2019-03-03T09:06:28.887Z,600.4
2019-03-03T09:07:31.050Z,600.4
2019-03-03T09:08:33.480Z,600.5
2019-03-03T09:09:35.898Z,601.1
2019-03-03T09:10:38.041Z,601
2019-03-03T09:11:40.482Z,601.5
2019-03-03T09:12:42.915Z,601.7
2019-03-03T09:13:45.361Z,601.8
2019-03-03T09:14:47.544Z,601.4
2019-03-03T09:15:49.724Z,601.9
2019-03-03T09:16:51.916Z,602.1
2019-03-03T09:17:54.324Z,601.7
2019-03-03T09:18:56.516Z,602.4
2019-03-03T09:19:58.948Z,602.6
2019-03-03T09:21:01.102Z,602.7
2019-03-03T09:22:05.677Z,602.4
2019-03-03T09:23:08.124Z,602.4
2019-03-03T09:24:10.271Z,602.5
2019-03-03T09:25:12.694Z,602.7
2019-03-03T09:26:14.590Z,602.7
2019-03-03T09:27:17.032Z,603.2
2019-03-03T09:28:19.207Z,602.7
2019-03-03T09:29:21.650Z,603.9
2019-03-03T09:30:24.081Z,604
2019-03-03T09:31:26.509Z,603.4
2019-03-03T09:32:28.668Z,602.5
2019-03-03T09:33:31.113Z,603.9
2019-03-03T09:34:33.564Z,603.9
2019-03-03T09:35:35.719Z,603.3
2019-03-03T09:36:38.143Z,603.6
2019-03-03T09:37:40.590Z,603.8
2019-03-03T09:38:43.018Z,603.5
2019-03-03T09:39:45.438Z,603.1
2019-03-03T09:40:47.866Z,603.5
2019-03-03T09:41:50.299Z,603.6
2019-03-03T09:42:52.453Z,604
2019-03-03T09:43:54.877Z,603.9
2019-03-03T09:44:57.022Z,604.1
2019-03-03T09:45:59.469Z,603.4
2019-03-03T09:47:01.895Z,603.8
2019-03-03T09:48:04.321Z,603.9
2019-03-03T09:49:06.767Z,604.3
2019-03-03T09:50:09.199Z,603.8
2019-03-03T09:51:11.372Z,603.6
2019-03-03T09:52:13.792Z,603.6
2019-03-03T09:53:16.221Z,604
2019-03-03T09:54:18.653Z,604.1
2019-03-03T09:55:20.813Z,603.9
2019-03-03T09:56:22.974Z,603.8
2019-03-03T09:57:25.439Z,603.8
2019-03-03T09:58:27.585Z,603.6
2019-03-03T09:59:30.009Z,603.7
2019-03-03T10:00:32.153Z,604.1
2019-03-03T10:01:34.581Z,603.4
2019-03-03T10:02:36.765Z,603.7
2019-03-03T10:03:38.659Z,603.5
2019-03-03T10:04:40.550Z,604
2019-03-03T10:05:42.984Z,603.5
2019-03-03T10:06:45.148Z,603
2019-03-03T10:07:47.307Z,603.6
2019-03-03T10:08:49.455Z,602.9
2019-03-03T10:09:51.361Z,603
2019-03-03T10:10:53.540Z,603
2019-03-03T10:11:55.980Z,602.8
2019-03-03T10:12:58.405Z,602.3
2019-03-03T10:14:00.840Z,602.6
2019-03-03T10:15:03.272Z,602.8
2019-03-03T10:16:05.157Z,602.4
2019-03-03T10:17:07.591Z,602.2
2019-03-03T10:18:10.033Z,602.4
2019-03-03T10:19:12.195Z,602.9
2019-03-03T10:20:14.618Z,602.1
2019-03-03T10:21:17.060Z,603
2019-03-03T10:22:18.942Z,602.5
2019-03-03T10:23:21.100Z,603.4
2019-03-03T10:24:23.543Z,603
2019-03-03T10:25:25.681Z,603.5
2019-03-03T10:26:28.138Z,603.6
2019-03-03T10:27:30.561Z,603.2
2019-03-03T10:28:32.988Z,603.3
2019-03-03T10:29:35.420Z,603.4
2019-03-03T10:30:37.589Z,603.8
2019-03-03T10:31:39.181Z,603.4
2019-03-03T10:32:41.064Z,603.8
2019-03-03T10:33:43.493Z,603.7
2019-03-03T10:34:45.370Z,604.3
2019-03-03T10:35:47.807Z,604
2019-03-03T10:36:50.248Z,603.6
2019-03-03T10:37:52.420Z,604.1
2019-03-03T10:38:54.567Z,604.9
2019-03-03T10:39:57.033Z,605.3
2019-03-03T10:40:59.460Z,605.2
2019-03-03T10:42:01.327Z,604.7
2019-03-03T10:43:03.764Z,605.1
2019-03-03T10:44:05.916Z,605.4
2019-03-03T10:45:08.345Z,605
2019-03-03T10:46:10.778Z,605.1
2019-03-03T10:47:13.204Z,604.8
2019-03-03T10:48:15.363Z,604.9
2019-03-03T10:49:17.788Z,605.6
2019-03-03T10:50:20.212Z,605.3
2019-03-03T10:51:22.381Z,604.8
2019-03-03T10:52:24.827Z,604.9
2019-03-03T10:53:27.250Z,605
2019-03-03T10:54:29.112Z,604.7
2019-03-03T10:55:31.549Z,605
2019-03-03T10:56:33.691Z,605
2019-03-03T10:57:36.150Z,604.9
2019-03-03T10:58:38.313Z,605.2
2019-03-03T10:59:40.489Z,605.2
2019-03-03T11:00:42.910Z,605.5
2019-03-03T11:01:45.349Z,604.9
2019-03-03T11:02:47.499Z,605.9
2019-03-03T11:03:49.953Z,605.8
2019-03-03T11:04:52.121Z,606.2
2019-03-03T11:05:54.263Z,604.6
2019-03-03T11:06:56.713Z,605.2
2019-03-03T11:07:58.855Z,605.4
2019-03-03T11:09:01.031Z,605.4
2019-03-03T11:10:03.474Z,605.8
2019-03-03T11:11:05.886Z,604.9
2019-03-03T11:12:08.320Z,606.2
2019-03-03T11:13:10.746Z,605.6
2019-03-03T11:14:13.187Z,605.4
2019-03-03T11:16:20.319Z,605.6
2019-03-03T11:17:22.744Z,605.6
2019-03-03T11:18:24.897Z,604.6
2019-03-03T11:19:27.053Z,605
2019-03-03T11:20:29.224Z,604.6
2019-03-03T11:21:31.676Z,604.9
2019-03-03T11:22:34.101Z,605.1
2019-03-03T11:23:36.262Z,605.5
2019-03-03T11:24:38.686Z,605.1
2019-03-03T11:25:40.877Z,605.2
2019-03-03T11:26:43.316Z,605.2
2019-03-03T11:27:45.467Z,605.5
2019-03-03T11:28:47.624Z,606.1
2019-03-03T11:29:49.769Z,606
2019-03-03T11:30:52.202Z,606
2019-03-03T11:31:54.632Z,606
2019-03-03T11:32:57.062Z,606.1
2019-03-03T11:33:59.493Z,606.5
2019-03-03T11:35:01.655Z,606.5
2019-03-03T11:36:03.806Z,606.3
2019-03-03T11:37:05.945Z,606.3
2019-03-03T11:38:07.810Z,606.2
2019-03-03T11:39:10.227Z,606.8
2019-03-03T11:40:12.099Z,607.1
2019-03-03T11:41:14.542Z,607
2019-03-03T11:42:16.975Z,607.2
2019-03-03T11:43:19.153Z,608
2019-03-03T11:44:21.326Z,608.1
2019-03-03T11:45:23.492Z,608.4
2019-03-03T11:46:25.921Z,608.3
2019-03-03T11:47:28.355Z,607.8
2019-03-03T11:48:30.525Z,608.8
2019-03-03T11:49:32.679Z,609
2019-03-03T11:50:35.118Z,609.3
2019-03-03T11:51:37.557Z,609.1
2019-03-03T11:52:39.991Z,609.1
2019-03-03T11:53:42.417Z,609.5
2019-03-03T11:54:44.573Z,609.9
2019-03-03T11:55:47.005Z,609.6
2019-03-03T11:56:49.431Z,609.8
2019-03-03T11:57:51.865Z,609.7
2019-03-03T11:58:54.038Z,609.6
2019-03-03T11:59:56.196Z,610.2
2019-03-03T12:00:58.385Z,609.8
2019-03-03T12:02:00.815Z,609.6
2019-03-03T12:03:03.249Z,611
2019-03-03T12:04:05.689Z,610.1
2019-03-03T12:05:08.114Z,610.3
2019-03-03T12:06:10.547Z,610.5
2019-03-03T12:07:12.705Z,610.9
2019-03-03T12:08:15.164Z,611.1
2019-03-03T12:09:17.621Z,611.7
2019-03-03T12:10:19.805Z,611.6
2019-03-03T12:11:21.700Z,612.6
2019-03-03T12:12:24.132Z,611.4
2019-03-03T12:13:26.571Z,611.6
2019-03-03T12:14:29.013Z,612.1
2019-03-03T12:15:31.449Z,613
2019-03-03T12:16:33.876Z,612.3
2019-03-03T12:17:36.314Z,612.7
2019-03-03T12:18:38.736Z,612.7
2019-03-03T12:19:41.177Z,612.7
2019-03-03T12:20:43.633Z,612.8
2019-03-03T12:21:46.089Z,613.2
2019-03-03T12:22:48.247Z,612.7
2019-03-03T12:23:50.671Z,613.1
2019-03-03T12:24:52.823Z,613.2
2019-03-03T12:25:54.987Z,613.7
2019-03-03T12:26:57.418Z,613.6
2019-03-03T12:27:59.838Z,613.4
2019-03-03T12:29:02.289Z,613.4
2019-03-03T12:30:04.176Z,614
2019-03-03T12:31:06.317Z,614.5
2019-03-03T12:32:08.469Z,614.2
2019-03-03T12:33:10.900Z,614.2
2019-03-03T12:34:13.063Z,614.6
2019-03-03T12:35:15.227Z,614.5
2019-03-03T12:36:17.662Z,614.4
2019-03-03T12:37:21.783Z,613.8
2019-03-03T12:38:24.221Z,614.2
2019-03-03T12:39:26.677Z,614.1
2019-03-03T12:40:28.844Z,614.1
2019-03-03T12:41:30.754Z,614.3
2019-03-03T12:42:33.178Z,613.1
2019-03-03T12:43:35.621Z,613.4
2019-03-03T12:44:38.058Z,613.8
2019-03-03T12:45:40.227Z,613.4
2019-03-03T12:46:42.384Z,614.1
2019-03-03T12:47:46.757Z,614.1
2019-03-03T12:48:49.238Z,614.4
2019-03-03T12:49:51.691Z,614.9
2019-03-03T12:50:53.578Z,614.7
2019-03-03T12:51:56.019Z,614.8
2019-03-03T12:52:58.441Z,614.6
2019-03-03T12:54:00.869Z,614.9
2019-03-03T12:55:03.285Z,615.3
2019-03-03T12:56:05.452Z,615
2019-03-03T12:57:07.606Z,615
2019-03-03T12:58:09.765Z,615.5
2019-03-03T12:59:11.918Z,616
2019-03-03T13:00:14.074Z,616.7
2019-03-03T13:01:16.513Z,615.6
2019-03-03T13:02:18.668Z,615
2019-03-03T13:03:21.099Z,615.3
2019-03-03T13:04:23.532Z,615.6
2019-03-03T13:05:25.968Z,615.8
2019-03-03T13:06:30.336Z,615.9
2019-03-03T13:07:32.888Z,616.5
2019-03-03T13:08:35.055Z,617
2019-03-03T13:09:37.498Z,616.4
2019-03-03T13:10:39.953Z,617.2
2019-03-03T13:11:42.378Z,616.9
2019-03-03T13:12:44.276Z,617
2019-03-03T13:13:46.718Z,617.4
2019-03-03T13:14:48.865Z,617.8
2019-03-03T13:15:51.032Z,618
2019-03-03T13:16:53.167Z,617.6
2019-03-03T13:17:55.077Z,618.1
2019-03-03T13:18:57.528Z,617.5
2019-03-03T13:19:59.691Z,617.3
2019-03-03T13:21:02.134Z,617.5
2019-03-03T13:22:04.567Z,618.1
2019-03-03T13:23:06.463Z,617.7
2019-03-03T13:24:08.898Z,618
2019-03-03T13:25:11.342Z,617.9
2019-03-03T13:26:13.232Z,618.2
2019-03-03T13:27:15.659Z,618.9
2019-03-03T13:28:17.822Z,619.1
2019-03-03T13:29:20.260Z,618.9
2019-03-03T13:30:22.733Z,618.6
2019-03-03T13:31:24.899Z,619.2